Time;durP1;ratioP1;P1;durP2;ratioP2;P2;SDS_P1;SDS_P2;PMS_P1;PMS_P2;Temp;Humidity;BMP_temperature;BMP_pressure;BME280_temperature;BME280_humidity;BME280_pressure;Samples;Min_cycle;Max_cycle;Signal;HPM_P1;HPM_P2
2022/05/01 00:00:38;;;;;;;1.00;0.57;;;;;;;16.37;55.16;101046.28;4990136;28;20177;-67
2022/05/01 00:03:07;;;;;;;1.00;0.60;;;;;;;16.38;55.71;101048.91;4989699;28;20469;-68
2022/05/01 00:05:36;;;;;;;3.72;0.60;;;;;;;16.62;53.50;101050.88;4989578;28;20145;-67
2022/05/01 00:08:06;;;;;;;0.95;0.40;;;;;;;16.83;55.24;101047.59;4989381;28;20051;-67
2022/05/01 00:10:35;;;;;;;1.92;0.50;;;;;;;16.89;54.59;101042.44;4989950;28;20050;-69
2022/05/01 00:13:04;;;;;;;0.63;0.50;;;;;;;16.91;54.60;101052.91;4989787;28;20114;-69
2022/05/01 00:15:33;;;;;;;2.28;0.60;;;;;;;16.87;53.79;101059.84;4989203;28;20639;-69
2022/05/01 00:18:01;;;;;;;1.05;0.45;;;;;;;16.76;54.06;101062.31;4992724;28;20054;-68
2022/05/01 00:20:29;;;;;;;3.08;0.68;;;;;;;16.62;54.95;101061.31;4990824;28;20218;-69
2022/05/01 00:22:58;;;;;;;1.23;0.50;;;;;;;16.60;54.52;101067.41;4989484;28;20082;-70
2022/05/01 00:25:28;;;;;;;1.27;0.80;;;;;;;16.57;55.14;101065.63;4989185;28;20117;-70
2022/05/01 00:27:57;;;;;;;0.70;0.35;;;;;;;16.53;54.39;101066.47;4988488;28;20054;-71
2022/05/01 00:30:26;;;;;;;1.15;0.50;;;;;;;16.61;54.88;101064.81;4989499;28;20074;-69
2022/05/01 00:38:25;;;;;;;0.45;0.35;;;;;;;16.50;52.07;101071.66;4968100;28;20062;-70
2022/05/01 00:40:56;;;;;;;1.73;0.50;;;;;;;16.43;52.74;101080.31;4950731;29;20066;-70
2022/05/01 00:43:25;;;;;;;2.20;0.60;;;;;;;16.38;52.50;101090.69;4931206;29;20086;-70
2022/05/01 00:45:54;;;;;;;0.60;0.40;;;;;;;16.32;53.32;101083.66;4931259;29;20579;-69
2022/05/01 00:48:23;;;;;;;0.70;0.50;;;;;;;16.27;52.71;101089.69;4930799;29;20084;-69
2022/05/01 00:50:53;;;;;;;0.52;0.30;;;;;;;16.33;52.75;101087.13;4931800;29;20597;-69
2022/05/01 00:53:21;;;;;;;0.32;0.30;;;;;;;16.46;51.94;101096.88;4931483;29;20263;-69
2022/05/01 00:55:50;;;;;;;0.45;0.35;;;;;;;16.58;53.32;101095.25;4931783;29;20455;-70
2022/05/01 00:58:21;;;;;;;1.85;0.40;;;;;;;16.68;51.93;101097.09;4931021;29;20514;-69
2022/05/01 01:00:49;;;;;;;1.30;0.32;;;;;;;16.72;50.92;101102.38;4931805;29;20130;-69
2022/05/01 01:03:18;;;;;;;0.65;0.38;;;;;;;16.76;52.64;101096.28;4930870;29;20083;-69
2022/05/01 01:05:46;;;;;;;1.85;0.35;;;;;;;16.76;52.27;101105.88;4938800;29;20047;-69
2022/05/01 01:08:15;;;;;;;1.63;0.40;;;;;;;16.72;52.37;101102.38;4950086;29;20047;-69
2022/05/01 01:10:43;;;;;;;0.47;0.30;;;;;;;16.68;52.79;101107.56;4950346;29;20043;-69
2022/05/01 01:13:12;;;;;;;1.40;0.50;;;;;;;16.65;50.42;101112.72;4952558;29;20071;-69
2022/05/01 01:15:43;;;;;;;0.75;0.32;;;;;;;16.64;50.87;101108.38;4952203;29;20534;-70
2022/05/01 01:18:12;;;;;;;0.70;0.40;;;;;;;16.70;51.66;101108.44;4950138;29;20154;-70
2022/05/01 01:20:42;;;;;;;0.57;0.30;;;;;;;16.73;51.02;101111.09;4950384;29;20600;-69
2022/05/01 01:23:11;;;;;;;0.50;0.17;;;;;;;16.72;47.80;101107.59;4949539;29;20043;-69
2022/05/01 01:25:39;;;;;;;0.35;0.20;;;;;;;16.70;49.11;101111.94;4949799;29;20059;-69
2022/05/01 01:28:08;;;;;;;1.42;0.65;;;;;;;16.66;48.80;101109.28;4949798;29;20106;-68
2022/05/01 01:33:25;;;;;;;0.30;0.15;;;;;;;16.56;48.94;101110.91;4949868;29;20086;-69
2022/05/01 01:35:57;;;;;;;0.30;0.20;;;;;;;16.58;48.63;101110.91;4950198;29;20182;-69
2022/05/01 01:38:25;;;;;;;1.00;0.20;;;;;;;16.57;48.08;101110.03;4952682;28;20078;-69
2022/05/01 01:40:55;;;;;;;0.70;0.28;;;;;;;16.55;48.86;101117.84;4949987;29;20051;-68
2022/05/01 01:43:27;;;;;;;0.25;0.20;;;;;;;16.48;48.47;101116.03;4949558;29;20078;-70
2022/05/01 01:45:56;;;;;;;1.45;0.30;;;;;;;16.48;48.04;101126.50;4950502;28;20105;-69
2022/05/01 01:48:25;;;;;;;1.17;0.50;;;;;;;16.48;48.85;101121.25;4950061;28;20051;-69
2022/05/01 01:50:59;;;;;;;1.65;0.30;;;;;;;16.48;49.29;101128.22;4949894;28;20073;-70
2022/05/01 01:53:28;;;;;;;0.30;0.30;;;;;;;16.47;49.54;101140.44;4949786;28;20051;-69
2022/05/01 01:55:57;;;;;;;0.93;0.50;;;;;;;16.46;49.45;101133.44;4950092;28;20059;-70
2022/05/01 01:58:26;;;;;;;0.35;0.30;;;;;;;16.38;50.29;101140.31;4953338;29;20130;-69
2022/05/01 02:00:55;;;;;;;0.40;0.20;;;;;;;16.27;50.80;101136.69;4953738;29;20078;-70
2022/05/01 02:03:24;;;;;;;1.63;0.57;;;;;;;16.18;49.98;101132.22;4953197;29;20055;-68
2022/05/01 02:05:52;;;;;;;0.93;0.30;;;;;;;16.08;52.13;101139.06;4962684;28;20061;-69
2022/05/01 02:08:22;;;;;;;0.75;0.45;;;;;;;15.93;52.85;101125.81;4975229;28;20082;-69
2022/05/01 02:10:51;;;;;;;0.75;0.32;;;;;;;15.86;53.54;101139.63;4963645;28;20055;-69
2022/05/01 02:13:20;;;;;;;0.30;0.30;;;;;;;15.78;54.54;101146.47;4953116;29;20059;-69
2022/05/01 02:15:48;;;;;;;0.63;0.20;;;;;;;15.69;55.04;101147.16;4933962;29;20048;-69
2022/05/01 02:18:17;;;;;;;1.88;0.43;;;;;;;15.62;55.66;101145.34;4934571;29;20143;-68
2022/05/01 02:23:33;;;;;;;0.60;0.50;;;;;;;15.46;57.18;101152.03;4933583;29;20512;-68
2022/05/01 02:26:01;;;;;;;1.65;0.40;;;;;;;15.39;57.29;101152.78;4933734;29;20056;-68
2022/05/01 02:28:30;;;;;;;1.17;0.70;;;;;;;15.34;58.83;101159.69;4933424;29;20517;-68
2022/05/01 02:30:59;;;;;;;1.05;0.70;;;;;;;15.26;59.23;101163.03;4934386;29;20121;-68
2022/05/01 02:33:28;;;;;;;1.17;0.57;;;;;;;15.23;59.33;101173.44;4933548;29;20568;-69
2022/05/01 02:35:56;;;;;;;1.15;0.47;;;;;;;15.19;59.21;101176.81;4933748;29;20686;-68
2022/05/01 02:38:25;;;;;;;0.75;0.63;;;;;;;15.13;61.11;101175.84;4953904;28;20058;-68
2022/05/01 02:40:55;;;;;;;0.82;0.50;;;;;;;15.04;63.43;101166.13;4972512;28;20053;-68
2022/05/01 02:43:24;;;;;;;2.90;0.50;;;;;;;14.96;63.06;101178.16;4971972;28;20051;-69
2022/05/01 02:45:53;;;;;;;0.40;0.30;;;;;;;14.88;61.84;101178.00;4972056;28;20109;-69
2022/05/01 02:48:21;;;;;;;0.68;0.45;;;;;;;14.76;62.67;101181.25;4972227;28;20563;-69
2022/05/01 02:50:50;;;;;;;0.55;0.40;;;;;;;14.72;64.32;101189.84;4972482;28;20054;-73
2022/05/01 02:53:18;;;;;;;1.08;0.47;;;;;;;14.68;65.49;101197.56;4971501;28;20042;-70
2022/05/01 02:55:46;;;;;;;0.82;0.52;;;;;;;14.56;67.80;101193.00;4971901;28;20584;-70
2022/05/01 02:58:17;;;;;;;2.17;1.08;;;;;;;14.37;70.04;101191.72;4972016;28;20050;-69
2022/05/01 03:00:45;;;;;;;2.67;0.50;;;;;;;14.21;71.83;101186.19;4971724;28;20872;-69
2022/05/01 03:03:13;;;;;;;0.60;0.60;;;;;;;14.09;75.64;101185.03;4973747;28;20047;-69
2022/05/01 03:05:42;;;;;;;0.63;0.43;;;;;;;13.88;76.51;101196.72;4979555;28;20077;-70
2022/05/01 03:08:12;;;;;;;1.27;0.50;;;;;;;13.75;80.30;101194.69;4990411;28;20575;-70
2022/05/01 03:10:40;;;;;;;1.38;0.60;;;;;;;13.64;84.45;101190.94;4991004;28;20060;-70
2022/05/01 03:13:09;;;;;;;1.02;0.40;;;;;;;13.47;83.10;101199.22;4990917;28;20047;-71
2022/05/01 03:15:40;;;;;;;0.77;0.60;;;;;;;13.28;83.64;101190.06;4990790;28;20047;-70
2022/05/01 03:23:39;;;;;;;2.00;0.60;;;;;;;13.07;97.40;101210.28;4990373;28;20053;-71
2022/05/01 03:26:07;;;;;;;1.20;0.65;;;;;;;13.07;97.25;101208.53;4990618;28;20511;-72
2022/05/01 03:28:36;;;;;;;1.63;0.60;;;;;;;13.08;96.55;101210.31;4990146;28;20544;-72
2022/05/01 03:31:09;;;;;;;0.93;0.55;;;;;;;13.00;96.62;101211.81;4990765;28;20133;-72
2022/05/01 03:33:38;;;;;;;0.73;0.43;;;;;;;12.95;100.00;101203.91;4990475;28;20050;-71
2022/05/01 03:36:08;;;;;;;2.03;0.57;;;;;;;12.94;100.00;101216.84;4990658;28;20633;-71
2022/05/01 03:38:37;;;;;;;1.10;0.50;;;;;;;12.90;100.00;101215.03;4971276;28;20147;-72
2022/05/01 03:41:07;;;;;;;1.33;0.43;;;;;;;12.89;100.00;101223.63;4951874;29;20051;-72
2022/05/01 03:43:36;;;;;;;0.57;0.38;;;;;;;12.88;100.00;101227.09;4951615;29;20048;-71
2022/05/01 03:46:06;;;;;;;0.82;0.43;;;;;;;12.87;100.00;101225.31;4951636;29;20082;-72
2022/05/01 03:48:35;;;;;;;1.80;0.57;;;;;;;12.84;100.00;101230.44;4951754;28;20062;-72
2022/05/01 03:51:04;;;;;;;4.00;0.63;;;;;;;12.76;100.00;101227.63;4951495;29;20054;-72
2022/05/01 03:53:32;;;;;;;1.67;0.60;;;;;;;12.66;100.00;101223.88;4951680;29;20089;-71
2022/05/01 03:56:01;;;;;;;1.50;0.40;;;;;;;12.69;100.00;101233.47;4952104;29;20122;-71
2022/05/01 03:58:30;;;;;;;0.40;0.30;;;;;;;12.67;100.00;101236.03;4954197;29;20082;-71
2022/05/01 04:00:58;;;;;;;1.02;0.38;;;;;;;12.69;100.00;101236.06;4952136;29;20047;-71
2022/05/01 04:03:28;;;;;;;0.57;0.40;;;;;;;12.68;100.00;101245.56;4949769;29;20138;-71
2022/05/01 04:05:57;;;;;;;0.80;0.40;;;;;;;12.66;100.00;101249.84;4951118;29;20108;-71
2022/05/01 04:08:25;;;;;;;0.80;0.30;;;;;;;12.64;100.00;101254.09;4950751;28;20118;-71
2022/05/01 04:10:54;;;;;;;1.17;0.50;;;;;;;12.63;100.00;101252.34;4951508;29;20490;-71
2022/05/01 04:13:22;;;;;;;1.90;0.40;;;;;;;12.61;100.00;101264.41;4950980;28;20134;-71
2022/05/01 04:15:51;;;;;;;1.70;0.40;;;;;;;12.52;100.00;101251.16;4951132;29;20043;-71
2022/05/01 04:18:19;;;;;;;2.38;0.30;;;;;;;12.52;100.00;101253.75;4950863;28;20043;-71
2022/05/01 04:20:50;;;;;;;2.42;0.70;;;;;;;12.50;100.00;101263.19;4950035;29;20134;-71
2022/05/01 04:23:18;;;;;;;0.93;0.60;;;;;;;12.49;100.00;101271.84;4950150;29;20063;-71
2022/05/01 04:25:48;;;;;;;4.32;0.40;;;;;;;12.45;100.00;101270.84;4950884;29;20451;-72
2022/05/01 04:28:16;;;;;;;1.02;0.60;;;;;;;12.42;100.00;101280.28;4950587;29;20051;-72
2022/05/01 04:30:46;;;;;;;2.13;0.93;;;;;;;12.39;100.00;101277.56;4951154;29;20147;-72
2022/05/01 04:33:16;;;;;;;2.85;0.52;;;;;;;12.33;100.00;101286.06;4951002;29;20053;-72
2022/05/01 04:35:45;;;;;;;0.55;0.55;;;;;;;12.28;100.00;101291.09;4951120;29;20134;-72
2022/05/01 04:38:16;;;;;;;2.67;0.50;;;;;;;12.23;100.00;101282.31;4958530;28;20517;-72
2022/05/01 04:40:46;;;;;;;1.07;0.50;;;;;;;12.17;100.00;101283.81;4969764;28;20440;-72
2022/05/01 04:43:18;;;;;;;0.95;0.55;;;;;;;12.08;100.00;101281.81;4969199;28;20047;-72
2022/05/01 04:45:48;;;;;;;1.00;0.57;;;;;;;12.02;100.00;101289.38;4970566;28;20050;-72
2022/05/01 04:48:17;;;;;;;1.13;0.60;;;;;;;11.99;100.00;101297.09;4969573;28;20042;-72
2022/05/01 04:50:46;;;;;;;1.63;0.63;;;;;;;11.94;100.00;101300.41;4969565;28;20055;-72
2022/05/01 04:53:18;;;;;;;1.13;0.60;;;;;;;11.89;100.00;101301.97;4970438;28;20490;-72
2022/05/01 04:55:48;;;;;;;1.00;0.70;;;;;;;11.84;100.00;101298.31;4973129;28;20676;-71
2022/05/01 04:58:17;;;;;;;2.25;0.70;;;;;;;11.82;100.00;101307.75;4970856;28;20051;-71
2022/05/01 05:00:46;;;;;;;1.23;0.68;;;;;;;11.79;100.00;101302.44;4969789;28;20053;-73
2022/05/01 05:03:15;;;;;;;0.75;0.50;;;;;;;11.75;100.00;101303.19;4969016;28;20047;-72
2022/05/01 05:05:43;;;;;;;3.92;0.75;;;;;;;11.73;100.00;101302.28;4969992;28;20198;-71
2022/05/01 05:10:59;;;;;;;0.90;0.57;;;;;;;11.66;100.00;101302.88;4970074;28;20143;-73
2022/05/01 05:13:28;;;;;;;0.60;0.60;;;;;;;11.64;100.00;101300.25;4969241;28;20051;-72
2022/05/01 05:15:58;;;;;;;3.55;0.90;;;;;;;11.61;100.00;101300.13;4970033;28;20061;-72
2022/05/01 05:18:26;;;;;;;4.53;0.70;;;;;;;11.54;100.00;101305.94;4969241;28;20051;-72
2022/05/01 05:20:55;;;;;;;1.90;0.77;;;;;;;11.45;100.00;101305.59;4969663;28;20145;-72
2022/05/01 05:23:23;;;;;;;4.05;0.70;;;;;;;11.39;100.00;101323.56;4969105;28;20113;-71
2022/05/01 05:25:52;;;;;;;1.10;0.70;;;;;;;11.35;100.00;101327.72;4970027;28;20101;-72
2022/05/01 05:28:22;;;;;;;2.13;0.70;;;;;;;11.35;100.00;101338.09;4969468;28;20556;-71
2022/05/01 05:30:50;;;;;;;1.02;0.70;;;;;;;11.34;100.00;101349.31;4970747;28;20050;-72
2022/05/01 05:33:19;;;;;;;2.30;0.63;;;;;;;11.36;100.00;101349.34;4973377;28;20436;-71
2022/05/01 05:35:48;;;;;;;2.90;0.88;;;;;;;11.36;100.00;101352.84;4973656;28;20071;-71
2022/05/01 05:38:16;;;;;;;1.08;0.70;;;;;;;11.35;100.00;101353.66;4979648;28;20062;-72
2022/05/01 05:40:44;;;;;;;2.50;0.60;;;;;;;11.32;100.00;101353.53;4992613;28;20096;-71
2022/05/01 05:43:13;;;;;;;1.08;0.60;;;;;;;11.29;100.00;101353.41;4992404;28;20567;-73
2022/05/01 05:45:43;;;;;;;0.63;0.35;;;;;;;11.29;100.00;101350.81;4992611;28;20741;-72
2022/05/01 05:48:12;;;;;;;0.90;0.50;;;;;;;11.27;100.00;101347.28;4992175;28;20046;-72
2022/05/01 05:50:40;;;;;;;1.52;0.75;;;;;;;11.25;100.00;101359.34;4994261;28;20108;-72
2022/05/01 05:53:09;;;;;;;2.78;0.77;;;;;;;11.18;100.00;101365.09;4994738;28;20088;-72
2022/05/01 05:55:37;;;;;;;4.85;1.10;;;;;;;11.14;100.00;101352.88;4992950;28;20054;-71
2022/05/01 05:58:05;;;;;;;0.55;0.50;;;;;;;11.07;100.00;101354.34;4992670;28;20054;-71
2022/05/01 06:00:34;;;;;;;2.80;1.13;;;;;;;11.03;100.00;101358.53;4992607;28;20077;-72
2022/05/01 06:03:10;;;;;;;2.35;0.77;;;;;;;11.03;100.00;101361.13;4992339;28;20042;-71
2022/05/01 06:05:39;;;;;;;1.23;0.50;;;;;;;11.06;100.00;101361.25;4991941;28;20054;-71
2022/05/01 06:08:08;;;;;;;1.25;0.85;;;;;;;11.07;100.00;101373.34;4992092;28;20046;-71
2022/05/01 06:10:38;;;;;;;1.67;0.70;;;;;;;11.09;100.00;101368.25;4992232;28;20054;-71
2022/05/01 06:13:07;;;;;;;0.90;0.70;;;;;;;11.08;100.00;101374.22;4992083;28;20093;-72
2022/05/01 06:15:35;;;;;;;0.82;0.60;;;;;;;10.99;100.00;101369.59;4991801;28;20077;-71
2022/05/01 06:18:04;;;;;;;1.70;0.65;;;;;;;10.93;100.00;101368.50;4991692;28;20086;-72
2022/05/01 06:20:34;;;;;;;2.80;0.80;;;;;;;10.90;100.00;101364.06;4992009;28;20137;-72
2022/05/01 06:23:02;;;;;;;2.25;0.60;;;;;;;10.93;100.00;101371.97;4991692;28;20050;-71
2022/05/01 06:25:30;;;;;;;1.73;0.70;;;;;;;10.97;100.00;101376.44;4992037;28;20488;-72
2022/05/01 06:27:59;;;;;;;0.82;0.60;;;;;;;10.99;100.00;101379.94;4991929;28;20054;-72
2022/05/01 06:30:28;;;;;;;2.25;0.70;;;;;;;11.02;100.00;101374.03;4992054;28;20108;-72
2022/05/01 06:32:56;;;;;;;2.00;0.70;;;;;;;11.03;100.00;101376.66;4991923;28;20050;-71
2022/05/01 06:35:31;;;;;;;1.15;0.80;;;;;;;11.03;100.00;101375.78;4991470;28;20113;-72
2022/05/01 06:38:01;;;;;;;1.45;0.75;;;;;;;11.00;100.00;101368.78;4988348;28;20074;-72
2022/05/01 06:40:30;;;;;;;1.00;0.70;;;;;;;10.94;100.00;101365.06;4952724;29;20685;-72
2022/05/01 06:42:58;;;;;;;0.75;0.47;;;;;;;10.92;100.00;101367.59;4951961;28;20071;-71
2022/05/01 06:45:26;;;;;;;2.30;0.85;;;;;;;10.96;100.00;101364.31;4952909;29;20082;-72
2022/05/01 06:47:55;;;;;;;2.70;0.70;;;;;;;10.94;100.00;101358.19;4954037;29;20059;-72
2022/05/01 06:50:23;;;;;;;2.40;0.85;;;;;;;10.94;100.00;101362.47;4955050;29;20087;-71
2022/05/01 06:52:52;;;;;;;1.90;0.90;;;;;;;10.96;100.00;101371.19;4953196;29;20086;-71
2022/05/01 06:55:25;;;;;;;1.48;0.60;;;;;;;10.96;100.00;101377.25;4953173;29;20055;-71
2022/05/01 06:57:53;;;;;;;1.88;0.82;;;;;;;10.96;100.00;101379.84;4952611;28;20142;-72
2022/05/01 07:00:31;;;;;;;1.55;0.90;;;;;;;10.97;100.00;101380.72;4952689;29;20553;-72
2022/05/01 07:03:00;;;;;;;0.80;0.60;;;;;;;10.98;100.00;101385.97;4952063;29;20759;-72
2022/05/01 07:05:29;;;;;;;1.55;0.80;;;;;;;11.00;100.00;101379.13;4952461;29;20110;-72
2022/05/01 07:07:57;;;;;;;1.58;0.82;;;;;;;10.97;100.00;101381.63;4952443;29;20090;-72
2022/05/01 07:10:28;;;;;;;2.20;1.05;;;;;;;10.93;100.00;101384.03;4952487;29;20386;-72
2022/05/01 07:12:56;;;;;;;1.63;0.95;;;;;;;10.91;100.00;101389.16;4952457;29;20051;-72
2022/05/01 07:15:24;;;;;;;3.15;0.95;;;;;;;10.93;100.00;101396.97;4952122;28;20216;-72
2022/05/01 07:17:53;;;;;;;2.65;1.00;;;;;;;10.95;100.00;101392.72;4952050;29;20062;-72
2022/05/01 07:20:21;;;;;;;1.90;0.95;;;;;;;10.96;100.00;101395.38;4952631;28;20059;-72
2022/05/01 07:22:50;;;;;;;1.63;1.00;;;;;;;10.93;100.00;101394.41;4951826;29;20126;-72
2022/05/01 07:25:18;;;;;;;3.15;0.93;;;;;;;10.87;100.00;101401.06;4952599;28;20129;-72
2022/05/01 07:27:48;;;;;;;6.07;1.05;;;;;;;10.84;100.00;101398.38;4951810;29;20134;-72
2022/05/01 07:30:17;;;;;;;5.65;1.02;;;;;;;10.84;100.00;101394.91;4951966;29;20051;-72
2022/05/01 07:32:45;;;;;;;1.75;1.17;;;;;;;10.82;100.00;101396.56;4951288;29;20130;-72
2022/05/01 07:35:14;;;;;;;1.48;0.77;;;;;;;10.82;100.00;101396.56;4951888;29;20051;-72
2022/05/01 07:37:42;;;;;;;1.38;0.82;;;;;;;10.86;100.00;101398.44;4951898;28;20102;-72
2022/05/01 07:40:12;;;;;;;3.72;1.17;;;;;;;10.89;100.00;101401.16;4952985;28;20623;-72
2022/05/01 07:42:40;;;;;;;6.57;1.63;;;;;;;10.91;100.00;101402.09;4951299;29;20166;-72
2022/05/01 07:45:11;;;;;;;1.67;0.90;;;;;;;10.90;100.00;101405.50;4953316;29;20047;-72
2022/05/01 07:47:40;;;;;;;1.38;0.90;;;;;;;10.91;100.00;101404.69;4953485;29;20106;-71
2022/05/01 07:50:09;;;;;;;1.45;0.90;;;;;;;10.92;100.00;101401.25;4952826;29;20051;-73
2022/05/01 07:52:38;;;;;;;6.88;0.98;;;;;;;10.88;100.00;101400.28;4951256;29;20083;-72
2022/05/01 07:55:08;;;;;;;1.83;1.42;;;;;;;10.85;100.00;101394.94;4951545;28;20138;-72
2022/05/01 07:57:36;;;;;;;2.38;1.10;;;;;;;10.81;100.00;101392.19;4951639;28;20087;-72
2022/05/01 08:00:06;;;;;;;1.17;0.85;;;;;;;10.79;100.00;101391.25;4951976;29;20134;-72
2022/05/01 08:05:23;;;;;;;3.67;1.25;;;;;;;10.79;100.00;101391.25;4951180;29;20497;-73
2022/05/01 08:07:53;;;;;;;2.00;0.85;;;;;;;10.79;100.00;101392.16;4951190;28;20051;-72
2022/05/01 08:10:21;;;;;;;3.85;1.50;;;;;;;10.78;100.00;101398.13;4937755;29;20055;-72
2022/05/01 08:12:50;;;;;;;2.88;0.80;;;;;;;10.76;100.00;101398.91;4950975;29;20086;-72
2022/05/01 08:15:19;;;;;;;1.90;1.00;;;;;;;10.74;100.00;101405.72;4951025;28;20264;-71
2022/05/01 08:17:49;;;;;;;1.88;1.23;;;;;;;10.74;100.00;101405.72;4951183;29;20043;-72
2022/05/01 08:23:07;;;;;;;1.95;1.13;;;;;;;10.70;100.00;101407.31;4951017;29;20058;-71
2022/05/01 08:25:36;;;;;;;1.30;1.00;;;;;;;10.71;100.00;101418.56;4951406;28;20622;-71
2022/05/01 08:28:06;;;;;;;2.65;1.05;;;;;;;10.71;100.00;101423.72;4951144;29;20051;-71
2022/05/01 08:30:35;;;;;;;5.13;0.95;;;;;;;10.67;100.00;101428.78;4951258;29;20055;-72
2022/05/01 08:33:05;;;;;;;2.28;1.25;;;;;;;10.59;100.00;101425.00;4950806;29;20055;-72
2022/05/01 08:35:34;;;;;;;2.40;1.00;;;;;;;10.54;100.00;101417.91;4950673;29;20051;-71
2022/05/01 08:38:16;;;;;;;2.17;1.10;;;;;;;10.50;100.00;101418.59;4956102;28;20095;-74
2022/05/01 08:40:49;;;;;;;1.92;1.00;;;;;;;10.50;100.00;101413.41;4989436;28;20567;-72
2022/05/01 08:43:18;;;;;;;1.70;1.00;;;;;;;10.52;100.00;101417.81;4991964;28;20046;-72
2022/05/01 08:45:59;;;;;;;1.65;0.93;;;;;;;10.56;100.00;101419.72;4990717;28;20054;-72
2022/05/01 08:48:36;;;;;;;1.95;1.10;;;;;;;10.56;100.00;101417.13;4989954;28;20069;-72
2022/05/01 08:51:06;;;;;;;2.17;1.08;;;;;;;10.60;100.00;101410.34;4989504;28;20043;-72
2022/05/01 08:53:35;;;;;;;1.27;0.80;;;;;;;10.62;100.00;101409.59;4988760;28;20078;-72
2022/05/01 08:56:04;;;;;;;1.75;1.13;;;;;;;10.62;100.00;101406.13;4989087;28;20050;-72
2022/05/01 08:58:32;;;;;;;3.58;1.10;;;;;;;10.60;100.00;101400.00;4989286;28;20144;-72
2022/05/01 09:01:01;;;;;;;1.88;1.17;;;;;;;10.56;100.00;101399.00;4989454;28;20157;-72
2022/05/01 09:03:31;;;;;;;1.70;0.90;;;;;;;10.47;100.00;101386.59;4989093;28;20096;-72
2022/05/01 09:06:00;;;;;;;1.77;1.02;;;;;;;10.50;100.00;101400.47;4988952;28;20156;-72
2022/05/01 09:08:29;;;;;;;2.88;0.80;;;;;;;10.49;100.00;101399.59;4989228;28;20109;-72
2022/05/01 09:12:49;;;;;;;1.75;0.80;;;;;;;10.48;100.00;101405.56;4988885;28;20058;-72
2022/05/01 09:13:45;;;;;;;1.50;0.85;;;;;;;10.47;100.00;101398.66;4988599;28;20407;-71
2022/05/01 09:16:14;;;;;;;1.83;1.30;;;;;;;10.42;100.00;101389.78;4989035;28;20096;-72
2022/05/01 09:18:49;;;;;;;1.73;0.82;;;;;;;10.41;100.00;101383.75;4988847;28;20562;-72
2022/05/01 09:21:17;;;;;;;1.75;0.82;;;;;;;10.38;100.00;101383.63;4985021;28;20139;-72
2022/05/01 09:23:48;;;;;;;2.13;1.20;;;;;;;10.35;100.00;101387.78;4986471;28;20082;-71
2022/05/01 09:26:17;;;;;;;2.85;1.20;;;;;;;10.27;100.00;101385.75;4988969;28;20049;-71
2022/05/01 09:28:54;;;;;;;1.75;1.23;;;;;;;10.21;100.00;101380.31;4988521;28;20116;-72
2022/05/01 09:31:46;;;;;;;1.55;1.00;;;;;;;10.19;100.00;101375.91;4988842;28;20499;-73
2022/05/01 09:34:21;;;;;;;3.95;1.85;;;;;;;10.16;100.00;101378.38;4988895;28;20137;-72
2022/05/01 09:36:50;;;;;;;1.42;0.85;;;;;;;10.16;100.00;101387.00;4988825;28;20077;-72
2022/05/01 09:39:30;;;;;;;1.33;0.80;;;;;;;10.13;100.00;101381.72;4969798;28;20051;-72
2022/05/01 09:42:14;;;;;;;1.77;0.77;;;;;;;10.13;100.00;101375.66;4953007;28;20118;-72
2022/05/01 09:44:43;;;;;;;1.85;0.95;;;;;;;10.12;100.00;101379.94;4950868;29;20090;-71
2022/05/01 09:47:12;;;;;;;1.70;0.88;;;;;;;10.10;100.00;101381.59;4949720;29;20079;-72
2022/05/01 09:49:54;;;;;;;1.75;0.90;;;;;;;10.06;100.00;101390.91;4950193;29;20051;-72
2022/05/01 09:52:22;;;;;;;4.27;1.30;;;;;;;10.03;100.00;101384.72;4949253;29;20436;-72
2022/05/01 09:55:06;;;;;;;1.50;1.00;;;;;;;10.03;100.00;101395.06;4950096;29;20047;-72
2022/05/01 09:57:34;;;;;;;3.15;0.90;;;;;;;10.02;100.00;101388.13;4947874;29;20115;-72
2022/05/01 10:00:03;;;;;;;2.95;1.00;;;;;;;10.00;100.00;101392.34;4949913;29;20091;-72
2022/05/01 10:02:32;;;;;;;2.03;1.20;;;;;;;10.00;100.00;101397.53;4949625;29;20047;-71
2022/05/01 10:05:04;;;;;;;2.90;1.00;;;;;;;10.00;100.00;101400.13;4949987;28;20078;-71
2022/05/01 10:07:37;;;;;;;0.93;0.82;;;;;;;9.99;100.00;101400.94;4949635;29;20055;-71
2022/05/01 10:10:09;;;;;;;3.22;0.90;;;;;;;9.97;100.00;101392.25;4949170;28;20519;-73
2022/05/01 10:12:45;;;;;;;1.50;0.88;;;;;;;9.96;100.00;101391.34;4949479;28;20051;-72
2022/05/01 10:15:15;;;;;;;8.35;1.13;;;;;;;9.95;100.00;101392.16;4950026;29;20052;-72
2022/05/01 10:17:45;;;;;;;3.80;1.17;;;;;;;9.94;100.00;101389.50;4951359;28;20118;-72
2022/05/01 10:20:15;;;;;;;1.17;0.80;;;;;;;9.95;100.00;101399.06;4952904;29;20051;-72
2022/05/01 10:22:44;;;;;;;1.80;0.90;;;;;;;9.94;100.00;101399.84;4952514;29;20051;-72
2022/05/01 10:25:17;;;;;;;1.08;0.88;;;;;;;9.92;100.00;101398.91;4953420;29;20103;-72
2022/05/01 10:27:54;;;;;;;1.50;1.00;;;;;;;9.91;100.00;101400.59;4945473;29;20469;-72
2022/05/01 10:33:39;;;;;;;1.85;0.95;;;;;;;9.86;100.00;101402.13;4953552;29;20058;-72
2022/05/01 10:36:37;;;;;;;1.95;0.98;;;;;;;9.85;100.00;101406.41;4955892;28;20051;-73
2022/05/01 10:39:10;;;;;;;2.35;1.00;;;;;;;9.85;100.00;101409.00;4984748;28;20054;-72
2022/05/01 10:41:48;;;;;;;2.00;1.25;;;;;;;9.83;100.00;101408.03;4991702;28;20497;-73
2022/05/01 10:44:33;;;;;;;2.25;1.27;;;;;;;9.83;100.00;101413.22;4991661;28;20124;-72
2022/05/01 10:47:12;;;;;;;2.22;1.00;;;;;;;9.85;100.00;101415.88;4991442;28;20050;-72
2022/05/01 10:49:44;;;;;;;2.60;1.10;;;;;;;9.85;100.00;101403.81;4991391;28;20050;-73
2022/05/01 10:52:19;;;;;;;2.70;1.10;;;;;;;9.86;100.00;101410.75;4991725;28;20386;-72
2022/05/01 10:55:03;;;;;;;2.28;1.02;;;;;;;9.87;100.00;101409.03;4991280;28;20082;-72
2022/05/01 10:57:33;;;;;;;1.55;0.98;;;;;;;9.81;100.00;101396.75;4991761;28;20046;-72
2022/05/01 11:00:10;;;;;;;1.98;1.10;;;;;;;9.82;100.00;101406.25;4991422;28;20087;-72
2022/05/01 11:02:41;;;;;;;1.10;0.80;;;;;;;9.79;100.00;101400.97;4990892;28;20508;-73
2022/05/01 11:05:10;;;;;;;2.30;1.20;;;;;;;9.79;100.00;101408.72;4990665;28;20050;-72
2022/05/01 11:07:41;;;;;;;2.00;1.10;;;;;;;9.78;100.00;101409.56;4990505;28;20568;-72
2022/05/01 11:10:12;;;;;;;2.70;1.55;;;;;;;9.77;100.00;101412.06;4986857;28;20046;-72
2022/05/01 11:12:40;;;;;;;1.50;1.10;;;;;;;9.73;100.00;101410.16;4971827;28;20086;-72
2022/05/01 11:15:10;;;;;;;1.17;0.82;;;;;;;9.69;100.00;101409.16;4968154;28;20138;-73
2022/05/01 11:17:57;;;;;;;2.88;1.10;;;;;;;9.67;100.00;101412.47;4971853;28;20524;-73
2022/05/01 11:20:29;;;;;;;4.07;0.95;;;;;;;9.67;100.00;101408.22;4952789;28;20081;-72
2022/05/01 11:23:21;;;;;;;2.05;1.02;;;;;;;9.67;100.00;101415.03;4957815;28;20149;-73
2022/05/01 11:25:50;;;;;;;2.95;1.15;;;;;;;9.66;100.00;101414.16;4971875;28;20046;-72
2022/05/01 11:28:52;;;;;;;1.35;0.80;;;;;;;9.70;100.00;101415.19;4971256;28;20043;-73
2022/05/01 11:31:51;;;;;;;1.80;1.05;;;;;;;9.75;100.00;101412.00;4971186;28;20063;-73
2022/05/01 11:34:35;;;;;;;1.27;0.82;;;;;;;9.80;100.00;101418.25;4928933;28;20058;-73
2022/05/01 11:37:06;;;;;;;1.30;0.77;;;;;;;9.83;100.00;101420.97;4971107;28;20108;-72
2022/05/01 11:40:16;;;;;;;3.45;0.88;;;;;;;9.86;100.00;101421.09;4969178;28;20091;-72
2022/05/01 11:42:45;;;;;;;1.52;0.93;;;;;;;9.90;100.00;101421.25;4922009;29;20047;-72
2022/05/01 11:45:13;;;;;;;2.42;0.93;;;;;;;9.93;100.00;101429.13;4951691;29;20513;-72
2022/05/01 11:47:42;;;;;;;2.67;0.70;;;;;;;9.94;100.00;101425.69;4951768;29;20161;-72
2022/05/01 11:50:25;;;;;;;1.50;0.73;;;;;;;9.94;100.00;101430.88;4951627;29;20804;-72
2022/05/01 11:52:55;;;;;;;;;;;;;;;9.95;100.00;101432.66;4950581;28;20055;-72
2022/05/01 12:03:41;;;;;;;2.35;1.13;;;;;;;10.06;100.00;101427.13;4951335;29;20061;-72
2022/05/01 12:06:10;;;;;;;1.77;1.27;;;;;;;10.07;100.00;101428.00;4951560;29;20062;-72
2022/05/01 12:08:52;;;;;;;1.90;0.90;;;;;;;10.08;100.00;101429.78;4951027;29;20047;-72
2022/05/01 12:11:33;;;;;;;2.50;1.02;;;;;;;10.11;100.00;101424.72;4951322;29;20047;-72
2022/05/01 12:14:09;;;;;;;2.88;1.27;;;;;;;10.07;100.00;101423.69;4951013;29;20047;-72